sensor_id;sensor_type;location;lat;lon;timestamp;P1;durP1;ratioP1;P2;durP2;ratioP2
836;SDS011;400;53.550;9.932;2022-11-15T00:00:44;29.08;;;23.33;;
836;SDS011;400;53.550;9.932;2022-11-15T00:03:12;26.73;;;22.02;;
836;SDS011;400;53.550;9.932;2022-11-15T00:05:40;28.52;;;24.58;;
836;SDS011;400;53.550;9.932;2022-11-15T00:08:07;27.23;;;22.52;;
836;SDS011;400;53.550;9.932;2022-11-15T00:10:35;25.08;;;22.15;;
836;SDS011;400;53.550;9.932;2022-11-15T00:13:04;27.90;;;22.73;;
836;SDS011;400;53.550;9.932;2022-11-15T00:15:33;26.35;;;20.88;;
836;SDS011;400;53.550;9.932;2022-11-15T00:18:01;29.08;;;23.95;;
836;SDS011;400;53.550;9.932;2022-11-15T00:20:28;25.73;;;22.40;;
836;SDS011;400;53.550;9.932;2022-11-15T00:22:55;29.67;;;22.30;;
836;SDS011;400;53.550;9.932;2022-11-15T00:25:22;32.00;;;25.13;;
836;SDS011;400;53.550;9.932;2022-11-15T00:27:56;25.40;;;21.90;;
836;SDS011;400;53.550;9.932;2022-11-15T00:30:25;27.73;;;21.80;;
836;SDS011;400;53.550;9.932;2022-11-15T00:32:53;27.58;;;21.83;;
836;SDS011;400;53.550;9.932;2022-11-15T00:35:20;25.63;;;21.70;;
836;SDS011;400;53.550;9.932;2022-11-15T00:37:47;28.33;;;23.38;;
836;SDS011;400;53.550;9.932;2022-11-15T00:40:14;27.95;;;22.02;;
836;SDS011;400;53.550;9.932;2022-11-15T00:42:41;26.25;;;22.38;;
836;SDS011;400;53.550;9.932;2022-11-15T00:45:11;26.52;;;22.50;;
836;SDS011;400;53.550;9.932;2022-11-15T00:47:38;24.35;;;21.35;;
836;SDS011;400;53.550;9.932;2022-11-15T00:50:05;26.05;;;21.88;;
836;SDS011;400;53.550;9.932;2022-11-15T00:52:32;26.42;;;23.48;;
836;SDS011;400;53.550;9.932;2022-11-15T00:54:59;26.35;;;21.40;;
836;SDS011;400;53.550;9.932;2022-11-15T00:57:26;26.38;;;22.25;;
836;SDS011;400;53.550;9.932;2022-11-15T00:59:53;26.63;;;22.50;;
836;SDS011;400;53.550;9.932;2022-11-15T01:02:21;26.23;;;22.05;;
836;SDS011;400;53.550;9.932;2022-11-15T01:04:48;27.48;;;21.50;;
836;SDS011;400;53.550;9.932;2022-11-15T01:07:15;28.33;;;22.48;;
836;SDS011;400;53.550;9.932;2022-11-15T01:09:42;31.95;;;23.70;;
836;SDS011;400;53.550;9.932;2022-11-15T01:12:08;31.52;;;23.50;;
836;SDS011;400;53.550;9.932;2022-11-15T01:14:35;25.10;;;21.73;;
836;SDS011;400;53.550;9.932;2022-11-15T01:17:02;29.48;;;23.15;;
836;SDS011;400;53.550;9.932;2022-11-15T01:19:30;25.00;;;22.40;;
836;SDS011;400;53.550;9.932;2022-11-15T01:21:57;30.27;;;23.00;;
836;SDS011;400;53.550;9.932;2022-11-15T01:24:24;23.80;;;20.90;;
836;SDS011;400;53.550;9.932;2022-11-15T01:26:51;26.00;;;23.17;;
836;SDS011;400;53.550;9.932;2022-11-15T01:29:18;29.05;;;24.13;;
836;SDS011;400;53.550;9.932;2022-11-15T01:31:45;26.65;;;22.08;;
836;SDS011;400;53.550;9.932;2022-11-15T01:34:12;27.40;;;23.35;;
836;SDS011;400;53.550;9.932;2022-11-15T01:36:41;26.75;;;22.77;;
836;SDS011;400;53.550;9.932;2022-11-15T01:39:08;26.08;;;21.55;;
836;SDS011;400;53.550;9.932;2022-11-15T01:41:35;26.08;;;22.58;;
836;SDS011;400;53.550;9.932;2022-11-15T01:47:04;26.08;;;23.08;;
836;SDS011;400;53.550;9.932;2022-11-15T01:49:35;27.23;;;20.75;;
836;SDS011;400;53.550;9.932;2022-11-15T01:52:07;27.77;;;23.35;;
836;SDS011;400;53.550;9.932;2022-11-15T01:54:37;29.38;;;23.30;;
836;SDS011;400;53.550;9.932;2022-11-15T01:57:06;28.98;;;24.13;;
836;SDS011;400;53.550;9.932;2022-11-15T01:59:36;29.80;;;24.25;;
836;SDS011;400;53.550;9.932;2022-11-15T02:02:06;27.10;;;22.75;;
836;SDS011;400;53.550;9.932;2022-11-15T02:04:34;25.35;;;22.60;;
836;SDS011;400;53.550;9.932;2022-11-15T02:07:06;25.42;;;22.42;;
836;SDS011;400;53.550;9.932;2022-11-15T02:09:36;27.70;;;22.70;;
836;SDS011;400;53.550;9.932;2022-11-15T02:12:03;27.05;;;22.83;;
836;SDS011;400;53.550;9.932;2022-11-15T02:14:31;32.65;;;23.20;;
836;SDS011;400;53.550;9.932;2022-11-15T02:17:01;26.23;;;21.80;;
836;SDS011;400;53.550;9.932;2022-11-15T02:19:52;28.25;;;23.00;;
836;SDS011;400;53.550;9.932;2022-11-15T02:22:43;28.55;;;23.05;;
836;SDS011;400;53.550;9.932;2022-11-15T02:25:30;25.23;;;21.52;;
836;SDS011;400;53.550;9.932;2022-11-15T02:28:10;25.63;;;20.90;;
836;SDS011;400;53.550;9.932;2022-11-15T02:31:06;29.80;;;23.23;;
836;SDS011;400;53.550;9.932;2022-11-15T02:33:39;27.17;;;21.65;;
836;SDS011;400;53.550;9.932;2022-11-15T02:36:14;29.15;;;22.83;;
836;SDS011;400;53.550;9.932;2022-11-15T02:38:54;28.35;;;23.08;;
836;SDS011;400;53.550;9.932;2022-11-15T02:41:26;28.30;;;23.33;;
836;SDS011;400;53.550;9.932;2022-11-15T02:43:59;25.33;;;22.00;;
836;SDS011;400;53.550;9.932;2022-11-15T02:46:40;29.92;;;23.38;;
836;SDS011;400;53.550;9.932;2022-11-15T02:49:29;25.85;;;21.58;;
836;SDS011;400;53.550;9.932;2022-11-15T02:51:59;26.73;;;22.33;;
836;SDS011;400;53.550;9.932;2022-11-15T02:54:28;25.95;;;22.75;;
836;SDS011;400;53.550;9.932;2022-11-15T02:57:02;28.70;;;22.60;;
836;SDS011;400;53.550;9.932;2022-11-15T02:59:44;25.45;;;20.42;;
836;SDS011;400;53.550;9.932;2022-11-15T03:02:30;25.88;;;23.08;;
836;SDS011;400;53.550;9.932;2022-11-15T03:05:15;26.73;;;23.67;;
836;SDS011;400;53.550;9.932;2022-11-15T03:07:56;24.58;;;21.52;;
836;SDS011;400;53.550;9.932;2022-11-15T03:10:31;25.38;;;21.15;;
836;SDS011;400;53.550;9.932;2022-11-15T03:13:06;29.45;;;23.00;;
836;SDS011;400;53.550;9.932;2022-11-15T03:15:43;26.38;;;20.75;;
836;SDS011;400;53.550;9.932;2022-11-15T03:18:19;24.63;;;21.35;;
836;SDS011;400;53.550;9.932;2022-11-15T03:20:48;27.83;;;22.80;;
836;SDS011;400;53.550;9.932;2022-11-15T03:23:20;26.27;;;21.15;;
836;SDS011;400;53.550;9.932;2022-11-15T03:25:48;28.48;;;23.55;;
836;SDS011;400;53.550;9.932;2022-11-15T03:28:17;27.55;;;21.85;;
836;SDS011;400;53.550;9.932;2022-11-15T03:30:49;26.38;;;21.20;;
836;SDS011;400;53.550;9.932;2022-11-15T03:33:20;26.05;;;21.75;;
836;SDS011;400;53.550;9.932;2022-11-15T03:35:48;26.08;;;20.40;;
836;SDS011;400;53.550;9.932;2022-11-15T03:38:17;25.80;;;21.48;;
836;SDS011;400;53.550;9.932;2022-11-15T03:40:49;24.38;;;20.65;;
836;SDS011;400;53.550;9.932;2022-11-15T03:43:23;24.17;;;20.77;;
836;SDS011;400;53.550;9.932;2022-11-15T03:45:56;24.90;;;20.88;;
836;SDS011;400;53.550;9.932;2022-11-15T03:48:30;23.20;;;19.02;;
836;SDS011;400;53.550;9.932;2022-11-15T03:51:00;23.67;;;21.02;;
836;SDS011;400;53.550;9.932;2022-11-15T03:53:29;25.17;;;20.48;;
836;SDS011;400;53.550;9.932;2022-11-15T03:55:56;22.90;;;19.23;;
836;SDS011;400;53.550;9.932;2022-11-15T03:58:23;23.08;;;18.52;;
836;SDS011;400;53.550;9.932;2022-11-15T04:00:53;25.75;;;19.30;;
836;SDS011;400;53.550;9.932;2022-11-15T04:03:20;23.95;;;17.88;;
836;SDS011;400;53.550;9.932;2022-11-15T04:05:48;27.08;;;20.65;;
836;SDS011;400;53.550;9.932;2022-11-15T04:08:16;26.50;;;20.42;;
836;SDS011;400;53.550;9.932;2022-11-15T04:10:48;23.13;;;19.90;;
836;SDS011;400;53.550;9.932;2022-11-15T04:13:15;19.75;;;17.73;;
836;SDS011;400;53.550;9.932;2022-11-15T04:15:42;21.38;;;18.88;;
836;SDS011;400;53.550;9.932;2022-11-15T04:18:10;21.33;;;18.60;;
836;SDS011;400;53.550;9.932;2022-11-15T04:20:40;23.38;;;18.50;;
836;SDS011;400;53.550;9.932;2022-11-15T04:23:27;23.00;;;18.80;;
836;SDS011;400;53.550;9.932;2022-11-15T04:26:26;21.90;;;19.48;;
836;SDS011;400;53.550;9.932;2022-11-15T04:28:53;22.30;;;19.13;;
836;SDS011;400;53.550;9.932;2022-11-15T04:31:38;24.73;;;19.27;;
836;SDS011;400;53.550;9.932;2022-11-15T04:34:05;19.90;;;17.63;;
836;SDS011;400;53.550;9.932;2022-11-15T04:36:32;19.73;;;17.55;;
836;SDS011;400;53.550;9.932;2022-11-15T04:39:18;20.40;;;17.80;;
836;SDS011;400;53.550;9.932;2022-11-15T04:41:45;20.50;;;18.30;;
836;SDS011;400;53.550;9.932;2022-11-15T04:44:12;20.33;;;17.20;;
836;SDS011;400;53.550;9.932;2022-11-15T04:46:39;20.52;;;17.85;;
836;SDS011;400;53.550;9.932;2022-11-15T04:49:05;22.35;;;17.73;;
836;SDS011;400;53.550;9.932;2022-11-15T04:51:32;21.17;;;17.63;;
836;SDS011;400;53.550;9.932;2022-11-15T04:53:59;21.92;;;18.38;;
836;SDS011;400;53.550;9.932;2022-11-15T04:56:30;21.08;;;17.70;;
836;SDS011;400;53.550;9.932;2022-11-15T04:58:57;22.83;;;18.38;;
836;SDS011;400;53.550;9.932;2022-11-15T05:01:24;23.63;;;19.42;;
836;SDS011;400;53.550;9.932;2022-11-15T05:03:51;20.60;;;16.85;;
836;SDS011;400;53.550;9.932;2022-11-15T05:06:35;18.80;;;16.02;;
836;SDS011;400;53.550;9.932;2022-11-15T05:09:02;19.85;;;16.20;;
836;SDS011;400;53.550;9.932;2022-11-15T05:11:30;19.10;;;17.05;;
836;SDS011;400;53.550;9.932;2022-11-15T05:13:57;23.38;;;17.98;;
836;SDS011;400;53.550;9.932;2022-11-15T05:16:24;20.30;;;17.58;;
836;SDS011;400;53.550;9.932;2022-11-15T05:18:51;21.35;;;17.30;;
836;SDS011;400;53.550;9.932;2022-11-15T05:21:19;19.17;;;16.35;;
836;SDS011;400;53.550;9.932;2022-11-15T05:23:46;18.90;;;16.40;;
836;SDS011;400;53.550;9.932;2022-11-15T05:26:14;21.98;;;17.70;;
836;SDS011;400;53.550;9.932;2022-11-15T05:28:43;22.40;;;18.38;;
836;SDS011;400;53.550;9.932;2022-11-15T05:31:11;19.38;;;17.23;;
836;SDS011;400;53.550;9.932;2022-11-15T05:33:39;20.70;;;17.08;;
836;SDS011;400;53.550;9.932;2022-11-15T05:36:09;22.33;;;18.05;;
836;SDS011;400;53.550;9.932;2022-11-15T05:38:40;23.15;;;18.83;;
836;SDS011;400;53.550;9.932;2022-11-15T05:41:10;17.80;;;16.00;;
836;SDS011;400;53.550;9.932;2022-11-15T05:43:39;20.05;;;16.50;;
836;SDS011;400;53.550;9.932;2022-11-15T05:46:09;20.42;;;17.35;;
836;SDS011;400;53.550;9.932;2022-11-15T05:48:49;17.77;;;15.95;;
836;SDS011;400;53.550;9.932;2022-11-15T05:51:27;26.52;;;18.92;;
836;SDS011;400;53.550;9.932;2022-11-15T05:53:56;16.95;;;15.15;;
836;SDS011;400;53.550;9.932;2022-11-15T05:56:31;20.52;;;16.40;;
836;SDS011;400;53.550;9.932;2022-11-15T05:58:59;16.40;;;14.65;;
836;SDS011;400;53.550;9.932;2022-11-15T06:01:32;16.73;;;14.70;;
836;SDS011;400;53.550;9.932;2022-11-15T06:04:01;17.73;;;15.15;;
836;SDS011;400;53.550;9.932;2022-11-15T06:06:28;18.85;;;15.70;;
836;SDS011;400;53.550;9.932;2022-11-15T06:08:56;16.73;;;14.43;;
836;SDS011;400;53.550;9.932;2022-11-15T06:11:29;15.55;;;13.90;;
836;SDS011;400;53.550;9.932;2022-11-15T06:13:57;19.45;;;15.05;;
836;SDS011;400;53.550;9.932;2022-11-15T06:16:24;16.27;;;14.57;;
836;SDS011;400;53.550;9.932;2022-11-15T06:18:55;16.67;;;14.95;;
836;SDS011;400;53.550;9.932;2022-11-15T06:21:26;17.70;;;15.10;;
836;SDS011;400;53.550;9.932;2022-11-15T06:23:57;17.42;;;15.52;;
836;SDS011;400;53.550;9.932;2022-11-15T06:26:27;17.48;;;15.75;;
836;SDS011;400;53.550;9.932;2022-11-15T06:28:55;17.50;;;15.65;;
836;SDS011;400;53.550;9.932;2022-11-15T06:31:24;20.73;;;16.13;;
836;SDS011;400;53.550;9.932;2022-11-15T06:33:52;18.70;;;15.95;;
836;SDS011;400;53.550;9.932;2022-11-15T06:36:27;17.25;;;15.20;;
836;SDS011;400;53.550;9.932;2022-11-15T06:38:54;20.23;;;16.73;;
836;SDS011;400;53.550;9.932;2022-11-15T06:41:23;17.27;;;15.30;;
836;SDS011;400;53.550;9.932;2022-11-15T06:43:56;20.83;;;16.55;;
836;SDS011;400;53.550;9.932;2022-11-15T06:46:30;17.52;;;15.73;;
836;SDS011;400;53.550;9.932;2022-11-15T06:49:01;18.98;;;16.80;;
836;SDS011;400;53.550;9.932;2022-11-15T06:51:30;18.77;;;16.33;;
836;SDS011;400;53.550;9.932;2022-11-15T06:53:58;17.85;;;15.90;;
836;SDS011;400;53.550;9.932;2022-11-15T06:56:26;16.65;;;14.98;;
836;SDS011;400;53.550;9.932;2022-11-15T06:58:52;17.27;;;15.48;;
836;SDS011;400;53.550;9.932;2022-11-15T07:01:19;15.93;;;14.32;;
836;SDS011;400;53.550;9.932;2022-11-15T07:03:46;17.05;;;15.25;;
836;SDS011;400;53.550;9.932;2022-11-15T07:06:18;19.48;;;16.05;;
836;SDS011;400;53.550;9.932;2022-11-15T07:08:45;17.30;;;14.75;;
836;SDS011;400;53.550;9.932;2022-11-15T07:11:14;18.05;;;16.23;;
836;SDS011;400;53.550;9.932;2022-11-15T07:13:41;20.85;;;16.27;;
836;SDS011;400;53.550;9.932;2022-11-15T07:16:08;16.90;;;14.98;;
836;SDS011;400;53.550;9.932;2022-11-15T07:18:40;17.88;;;16.08;;
836;SDS011;400;53.550;9.932;2022-11-15T07:21:12;18.40;;;16.23;;
836;SDS011;400;53.550;9.932;2022-11-15T07:23:49;20.10;;;15.93;;
836;SDS011;400;53.550;9.932;2022-11-15T07:26:20;18.67;;;14.80;;
836;SDS011;400;53.550;9.932;2022-11-15T07:28:50;17.83;;;15.52;;
836;SDS011;400;53.550;9.932;2022-11-15T07:31:18;18.00;;;16.20;;
836;SDS011;400;53.550;9.932;2022-11-15T07:33:45;18.42;;;16.48;;
836;SDS011;400;53.550;9.932;2022-11-15T07:36:11;17.88;;;15.98;;
836;SDS011;400;53.550;9.932;2022-11-15T07:38:39;19.88;;;14.98;;
836;SDS011;400;53.550;9.932;2022-11-15T07:41:08;16.80;;;15.10;;
836;SDS011;400;53.550;9.932;2022-11-15T07:43:35;22.27;;;20.00;;
836;SDS011;400;53.550;9.932;2022-11-15T07:46:03;23.20;;;18.63;;
836;SDS011;400;53.550;9.932;2022-11-15T07:48:34;18.30;;;16.50;;
836;SDS011;400;53.550;9.932;2022-11-15T07:51:05;17.50;;;15.70;;
836;SDS011;400;53.550;9.932;2022-11-15T07:53:32;22.45;;;17.58;;
836;SDS011;400;53.550;9.932;2022-11-15T07:55:59;24.52;;;19.55;;
836;SDS011;400;53.550;9.932;2022-11-15T07:58:29;18.38;;;16.25;;
836;SDS011;400;53.550;9.932;2022-11-15T08:01:03;18.95;;;16.08;;
836;SDS011;400;53.550;9.932;2022-11-15T08:03:31;20.30;;;15.85;;
836;SDS011;400;53.550;9.932;2022-11-15T08:05:59;18.10;;;16.30;;
836;SDS011;400;53.550;9.932;2022-11-15T08:08:29;16.25;;;14.65;;
836;SDS011;400;53.550;9.932;2022-11-15T08:11:00;20.50;;;15.37;;
836;SDS011;400;53.550;9.932;2022-11-15T08:13:31;15.90;;;13.60;;
836;SDS011;400;53.550;9.932;2022-11-15T08:15:59;16.17;;;14.57;;
836;SDS011;400;53.550;9.932;2022-11-15T08:18:31;14.90;;;13.57;;
836;SDS011;400;53.550;9.932;2022-11-15T08:21:02;17.27;;;15.48;;
836;SDS011;400;53.550;9.932;2022-11-15T08:23:33;19.73;;;14.77;;
836;SDS011;400;53.550;9.932;2022-11-15T08:26:03;18.50;;;16.27;;
836;SDS011;400;53.550;9.932;2022-11-15T08:28:36;19.60;;;16.57;;
836;SDS011;400;53.550;9.932;2022-11-15T08:31:04;17.77;;;15.95;;
836;SDS011;400;53.550;9.932;2022-11-15T08:33:31;21.98;;;16.42;;
836;SDS011;400;53.550;9.932;2022-11-15T08:36:02;18.10;;;16.08;;
836;SDS011;400;53.550;9.932;2022-11-15T08:38:36;18.23;;;16.23;;
836;SDS011;400;53.550;9.932;2022-11-15T08:41:06;17.33;;;15.60;;
836;SDS011;400;53.550;9.932;2022-11-15T08:43:34;18.43;;;16.10;;
836;SDS011;400;53.550;9.932;2022-11-15T08:46:07;19.43;;;15.73;;
836;SDS011;400;53.550;9.932;2022-11-15T08:48:46;17.60;;;15.73;;
836;SDS011;400;53.550;9.932;2022-11-15T08:51:19;19.37;;;17.00;;
836;SDS011;400;53.550;9.932;2022-11-15T08:53:47;16.43;;;14.57;;
836;SDS011;400;53.550;9.932;2022-11-15T08:56:19;18.67;;;14.85;;
836;SDS011;400;53.550;9.932;2022-11-15T08:59:02;14.93;;;13.35;;
836;SDS011;400;53.550;9.932;2022-11-15T09:01:29;14.63;;;12.80;;
836;SDS011;400;53.550;9.932;2022-11-15T09:03:59;17.40;;;15.07;;
836;SDS011;400;53.550;9.932;2022-11-15T09:06:25;16.17;;;14.37;;
836;SDS011;400;53.550;9.932;2022-11-15T09:08:52;14.77;;;12.90;;
836;SDS011;400;53.550;9.932;2022-11-15T09:11:19;15.35;;;13.75;;
836;SDS011;400;53.550;9.932;2022-11-15T09:13:47;16.05;;;12.98;;
836;SDS011;400;53.550;9.932;2022-11-15T09:16:15;18.75;;;14.98;;
836;SDS011;400;53.550;9.932;2022-11-15T09:18:42;16.73;;;13.67;;
836;SDS011;400;53.550;9.932;2022-11-15T09:21:09;14.07;;;12.75;;
836;SDS011;400;53.550;9.932;2022-11-15T09:23:36;15.87;;;14.10;;
836;SDS011;400;53.550;9.932;2022-11-15T09:26:06;17.73;;;14.93;;
836;SDS011;400;53.550;9.932;2022-11-15T09:28:47;19.80;;;17.03;;
836;SDS011;400;53.550;9.932;2022-11-15T09:31:23;21.20;;;16.03;;
836;SDS011;400;53.550;9.932;2022-11-15T09:33:53;18.70;;;16.88;;
836;SDS011;400;53.550;9.932;2022-11-15T09:36:25;16.73;;;15.10;;
836;SDS011;400;53.550;9.932;2022-11-15T09:38:57;17.47;;;15.23;;
836;SDS011;400;53.550;9.932;2022-11-15T09:41:38;15.67;;;14.07;;
836;SDS011;400;53.550;9.932;2022-11-15T09:44:29;17.35;;;15.50;;
836;SDS011;400;53.550;9.932;2022-11-15T09:47:15;18.63;;;15.53;;
836;SDS011;400;53.550;9.932;2022-11-15T09:49:59;18.77;;;15.75;;
836;SDS011;400;53.550;9.932;2022-11-15T09:52:30;16.40;;;14.83;;
836;SDS011;400;53.550;9.932;2022-11-15T09:55:00;17.17;;;15.37;;
836;SDS011;400;53.550;9.932;2022-11-15T09:57:30;19.10;;;15.60;;
836;SDS011;400;53.550;9.932;2022-11-15T10:00:08;15.57;;;14.00;;
836;SDS011;400;53.550;9.932;2022-11-15T10:02:46;15.47;;;13.60;;
836;SDS011;400;53.550;9.932;2022-11-15T10:05:25;14.17;;;12.80;;
836;SDS011;400;53.550;9.932;2022-11-15T10:08:03;15.52;;;13.93;;
836;SDS011;400;53.550;9.932;2022-11-15T10:10:38;19.90;;;16.93;;
836;SDS011;400;53.550;9.932;2022-11-15T10:13:08;16.17;;;14.17;;
836;SDS011;400;53.550;9.932;2022-11-15T10:15:41;15.23;;;13.63;;
836;SDS011;400;53.550;9.932;2022-11-15T10:18:15;17.00;;;13.97;;
836;SDS011;400;53.550;9.932;2022-11-15T10:20:47;14.83;;;13.20;;
836;SDS011;400;53.550;9.932;2022-11-15T10:23:19;13.13;;;11.88;;
836;SDS011;400;53.550;9.932;2022-11-15T10:25:52;15.27;;;13.83;;
836;SDS011;400;53.550;9.932;2022-11-15T10:28:27;15.73;;;14.07;;
836;SDS011;400;53.550;9.932;2022-11-15T10:30:56;15.13;;;13.53;;
836;SDS011;400;53.550;9.932;2022-11-15T10:33:29;15.70;;;14.10;;
836;SDS011;400;53.550;9.932;2022-11-15T10:36:18;15.33;;;13.70;;
836;SDS011;400;53.550;9.932;2022-11-15T10:38:51;16.80;;;15.00;;
836;SDS011;400;53.550;9.932;2022-11-15T10:41:40;15.77;;;14.13;;
836;SDS011;400;53.550;9.932;2022-11-15T10:44:20;14.90;;;13.33;;
836;SDS011;400;53.550;9.932;2022-11-15T10:47:05;19.60;;;14.50;;
836;SDS011;400;53.550;9.932;2022-11-15T10:49:54;16.40;;;14.47;;
836;SDS011;400;53.550;9.932;2022-11-15T10:52:23;16.60;;;14.90;;
836;SDS011;400;53.550;9.932;2022-11-15T10:54:51;16.27;;;13.73;;
836;SDS011;400;53.550;9.932;2022-11-15T10:57:21;18.30;;;14.87;;
836;SDS011;400;53.550;9.932;2022-11-15T10:59:51;15.17;;;13.60;;
836;SDS011;400;53.550;9.932;2022-11-15T11:02:27;16.47;;;14.23;;
836;SDS011;400;53.550;9.932;2022-11-15T11:04:58;20.00;;;13.40;;
836;SDS011;400;53.550;9.932;2022-11-15T11:07:27;15.83;;;12.47;;
836;SDS011;400;53.550;9.932;2022-11-15T11:09:59;13.80;;;12.40;;
836;SDS011;400;53.550;9.932;2022-11-15T11:12:46;14.30;;;12.57;;
836;SDS011;400;53.550;9.932;2022-11-15T11:15:15;19.43;;;13.17;;
836;SDS011;400;53.550;9.932;2022-11-15T11:17:57;15.13;;;13.57;;
836;SDS011;400;53.550;9.932;2022-11-15T11:20:41;16.53;;;12.67;;
836;SDS011;400;53.550;9.932;2022-11-15T11:23:19;14.83;;;13.20;;
836;SDS011;400;53.550;9.932;2022-11-15T11:26:05;13.70;;;12.30;;
836;SDS011;400;53.550;9.932;2022-11-15T11:29:08;15.80;;;12.77;;
836;SDS011;400;53.550;9.932;2022-11-15T11:31:45;15.93;;;14.23;;
836;SDS011;400;53.550;9.932;2022-11-15T11:34:23;15.97;;;13.07;;
836;SDS011;400;53.550;9.932;2022-11-15T11:37:03;15.17;;;13.57;;
836;SDS011;400;53.550;9.932;2022-11-15T11:39:44;17.27;;;13.67;;
836;SDS011;400;53.550;9.932;2022-11-15T11:42:24;15.47;;;13.27;;
836;SDS011;400;53.550;9.932;2022-11-15T11:45:00;18.23;;;12.80;;
836;SDS011;400;53.550;9.932;2022-11-15T11:47:47;15.23;;;13.73;;
836;SDS011;400;53.550;9.932;2022-11-15T11:50:21;13.83;;;12.37;;
836;SDS011;400;53.550;9.932;2022-11-15T11:52:56;15.37;;;12.57;;
836;SDS011;400;53.550;9.932;2022-11-15T11:55:26;14.60;;;12.53;;
836;SDS011;400;53.550;9.932;2022-11-15T11:58:00;17.20;;;13.57;;
836;SDS011;400;53.550;9.932;2022-11-15T12:00:37;15.87;;;13.63;;
836;SDS011;400;53.550;9.932;2022-11-15T12:03:12;16.30;;;12.80;;
836;SDS011;400;53.550;9.932;2022-11-15T12:05:53;15.70;;;13.07;;
836;SDS011;400;53.550;9.932;2022-11-15T12:08:29;12.07;;;10.97;;
836;SDS011;400;53.550;9.932;2022-11-15T12:11:04;12.80;;;11.53;;
836;SDS011;400;53.550;9.932;2022-11-15T12:13:50;14.43;;;12.40;;
836;SDS011;400;53.550;9.932;2022-11-15T12:16:26;12.73;;;11.43;;
836;SDS011;400;53.550;9.932;2022-11-15T12:19:01;14.40;;;12.37;;
836;SDS011;400;53.550;9.932;2022-11-15T12:21:32;13.53;;;11.87;;
836;SDS011;400;53.550;9.932;2022-11-15T12:24:12;20.67;;;14.53;;
836;SDS011;400;53.550;9.932;2022-11-15T12:26:51;13.60;;;12.00;;
836;SDS011;400;53.550;9.932;2022-11-15T12:29:29;14.13;;;12.50;;
836;SDS011;400;53.550;9.932;2022-11-15T12:32:10;22.50;;;20.30;;
836;SDS011;400;53.550;9.932;2022-11-15T12:34:55;17.47;;;15.77;;
836;SDS011;400;53.550;9.932;2022-11-15T12:40:30;13.20;;;11.70;;
836;SDS011;400;53.550;9.932;2022-11-15T12:46:05;11.97;;;10.83;;
836;SDS011;400;53.550;9.932;2022-11-15T12:57:34;12.40;;;10.27;;
836;SDS011;400;53.550;9.932;2022-11-15T13:03:17;12.73;;;11.43;;
836;SDS011;400;53.550;9.932;2022-11-15T13:06:04;12.43;;;11.20;;
836;SDS011;400;53.550;9.932;2022-11-15T13:08:49;12.00;;;10.80;;
836;SDS011;400;53.550;9.932;2022-11-15T13:19:57;12.70;;;11.40;;
836;SDS011;400;53.550;9.932;2022-11-15T13:22:37;13.20;;;10.83;;
836;SDS011;400;53.550;9.932;2022-11-15T13:28:21;12.43;;;10.50;;
836;SDS011;400;53.550;9.932;2022-11-15T13:30:52;12.77;;;11.50;;
836;SDS011;400;53.550;9.932;2022-11-15T13:33:23;13.37;;;11.90;;
836;SDS011;400;53.550;9.932;2022-11-15T13:35:55;14.63;;;11.70;;
836;SDS011;400;53.550;9.932;2022-11-15T13:38:28;10.83;;;9.73;;
836;SDS011;400;53.550;9.932;2022-11-15T13:40:59;11.47;;;10.37;;
836;SDS011;400;53.550;9.932;2022-11-15T13:43:43;11.53;;;10.33;;
836;SDS011;400;53.550;9.932;2022-11-15T13:46:13;17.03;;;11.07;;
836;SDS011;400;53.550;9.932;2022-11-15T13:48:57;21.20;;;12.53;;
836;SDS011;400;53.550;9.932;2022-11-15T13:51:30;17.40;;;15.70;;
836;SDS011;400;53.550;9.932;2022-11-15T13:54:06;16.67;;;13.70;;
836;SDS011;400;53.550;9.932;2022-11-15T13:56:42;12.97;;;10.63;;
836;SDS011;400;53.550;9.932;2022-11-15T13:59:14;11.60;;;10.13;;
836;SDS011;400;53.550;9.932;2022-11-15T14:01:46;11.30;;;9.93;;
836;SDS011;400;53.550;9.932;2022-11-15T14:04:14;13.23;;;9.80;;
836;SDS011;400;53.550;9.932;2022-11-15T14:06:47;17.03;;;9.27;;
836;SDS011;400;53.550;9.932;2022-11-15T14:12:25;10.37;;;9.37;;
836;SDS011;400;53.550;9.932;2022-11-15T14:14:55;10.90;;;9.37;;
836;SDS011;400;53.550;9.932;2022-11-15T14:17:35;12.50;;;11.17;;
836;SDS011;400;53.550;9.932;2022-11-15T14:20:18;11.90;;;10.80;;
836;SDS011;400;53.550;9.932;2022-11-15T14:22:53;13.10;;;10.30;;
836;SDS011;400;53.550;9.932;2022-11-15T14:25:24;10.80;;;9.33;;
836;SDS011;400;53.550;9.932;2022-11-15T14:28:12;15.53;;;11.30;;
836;SDS011;400;53.550;9.932;2022-11-15T14:30:58;11.13;;;10.03;;
836;SDS011;400;53.550;9.932;2022-11-15T14:33:28;12.50;;;10.40;;
836;SDS011;400;53.550;9.932;2022-11-15T14:35:58;13.43;;;10.97;;
836;SDS011;400;53.550;9.932;2022-11-15T14:38:32;11.27;;;9.87;;
836;SDS011;400;53.550;9.932;2022-11-15T14:41:04;12.10;;;10.33;;
836;SDS011;400;53.550;9.932;2022-11-15T14:43:38;11.57;;;10.30;;
836;SDS011;400;53.550;9.932;2022-11-15T14:46:12;10.73;;;9.63;;
836;SDS011;400;53.550;9.932;2022-11-15T14:48:42;11.10;;;9.40;;
836;SDS011;400;53.550;9.932;2022-11-15T14:51:13;10.00;;;9.10;;
836;SDS011;400;53.550;9.932;2022-11-15T14:53:42;9.90;;;8.90;;
836;SDS011;400;53.550;9.932;2022-11-15T14:56:10;10.97;;;9.87;;
836;SDS011;400;53.550;9.932;2022-11-15T14:58:37;12.07;;;10.87;;
836;SDS011;400;53.550;9.932;2022-11-15T15:01:10;10.93;;;9.90;;
836;SDS011;400;53.550;9.932;2022-11-15T15:03:50;13.93;;;12.47;;
836;SDS011;400;53.550;9.932;2022-11-15T15:06:24;45.33;;;40.63;;
836;SDS011;400;53.550;9.932;2022-11-15T15:08:55;21.20;;;19.17;;
836;SDS011;400;53.550;9.932;2022-11-15T15:11:26;14.77;;;13.27;;
836;SDS011;400;53.550;9.932;2022-11-15T15:13:58;12.17;;;10.83;;
836;SDS011;400;53.550;9.932;2022-11-15T15:16:37;12.07;;;10.80;;
836;SDS011;400;53.550;9.932;2022-11-15T15:19:06;12.13;;;10.97;;
836;SDS011;400;53.550;9.932;2022-11-15T15:21:46;12.90;;;11.67;;
836;SDS011;400;53.550;9.932;2022-11-15T15:24:17;11.63;;;10.50;;
836;SDS011;400;53.550;9.932;2022-11-15T15:26:46;11.53;;;10.40;;
836;SDS011;400;53.550;9.932;2022-11-15T15:29:15;12.57;;;10.50;;
836;SDS011;400;53.550;9.932;2022-11-15T15:31:46;12.93;;;10.90;;
836;SDS011;400;53.550;9.932;2022-11-15T15:34:20;13.10;;;10.10;;
836;SDS011;400;53.550;9.932;2022-11-15T15:36:49;13.90;;;10.33;;
836;SDS011;400;53.550;9.932;2022-11-15T15:39:34;11.30;;;9.60;;
836;SDS011;400;53.550;9.932;2022-11-15T15:42:04;16.33;;;14.73;;
836;SDS011;400;53.550;9.932;2022-11-15T15:44:33;11.93;;;10.70;;
836;SDS011;400;53.550;9.932;2022-11-15T15:47:08;22.93;;;20.60;;
836;SDS011;400;53.550;9.932;2022-11-15T15:49:40;12.63;;;11.37;;
836;SDS011;400;53.550;9.932;2022-11-15T15:52:07;11.93;;;10.73;;
836;SDS011;400;53.550;9.932;2022-11-15T15:54:40;12.27;;;11.03;;
836;SDS011;400;53.550;9.932;2022-11-15T15:57:11;13.10;;;11.37;;
836;SDS011;400;53.550;9.932;2022-11-15T15:59:42;11.70;;;10.50;;
836;SDS011;400;53.550;9.932;2022-11-15T16:02:11;13.33;;;12.10;;
836;SDS011;400;53.550;9.932;2022-11-15T16:04:41;12.33;;;11.10;;
836;SDS011;400;53.550;9.932;2022-11-15T16:07:13;11.90;;;10.80;;
836;SDS011;400;53.550;9.932;2022-11-15T16:09:44;16.40;;;11.40;;
836;SDS011;400;53.550;9.932;2022-11-15T16:12:33;12.10;;;10.90;;
836;SDS011;400;53.550;9.932;2022-11-15T16:15:08;14.13;;;11.20;;
836;SDS011;400;53.550;9.932;2022-11-15T16:17:39;11.70;;;10.60;;
836;SDS011;400;53.550;9.932;2022-11-15T16:20:15;12.73;;;11.50;;
836;SDS011;400;53.550;9.932;2022-11-15T16:22:54;12.23;;;10.70;;